sensor_id;sensor_type;location;lat;lon;timestamp;P1;durP1;ratioP1;P2;durP2;ratioP2
2956;SDS011;1488;51.548;7.222;2023-08-06T00:01:34;1.67;;;1.57;;
2956;SDS011;1488;51.548;7.222;2023-08-06T00:04:01;1.70;;;1.60;;
2956;SDS011;1488;51.548;7.222;2023-08-06T00:06:28;1.87;;;1.73;;
2956;SDS011;1488;51.548;7.222;2023-08-06T00:08:55;1.80;;;1.70;;
2956;SDS011;1488;51.548;7.222;2023-08-06T00:11:22;2.03;;;1.93;;
2956;SDS011;1488;51.548;7.222;2023-08-06T00:13:49;1.80;;;1.67;;
2956;SDS011;1488;51.548;7.222;2023-08-06T00:16:17;1.70;;;1.60;;
2956;SDS011;1488;51.548;7.222;2023-08-06T00:18:44;2.13;;;2.00;;
2956;SDS011;1488;51.548;7.222;2023-08-06T00:21:11;1.77;;;1.67;;
2956;SDS011;1488;51.548;7.222;2023-08-06T00:23:38;1.70;;;1.60;;
2956;SDS011;1488;51.548;7.222;2023-08-06T00:26:05;2.10;;;2.00;;
2956;SDS011;1488;51.548;7.222;2023-08-06T00:28:32;1.83;;;1.73;;
2956;SDS011;1488;51.548;7.222;2023-08-06T00:30:59;2.00;;;1.90;;
2956;SDS011;1488;51.548;7.222;2023-08-06T00:33:27;2.00;;;1.90;;
2956;SDS011;1488;51.548;7.222;2023-08-06T00:35:54;2.53;;;2.33;;
2956;SDS011;1488;51.548;7.222;2023-08-06T00:38:20;1.80;;;1.70;;
2956;SDS011;1488;51.548;7.222;2023-08-06T00:40:47;2.40;;;2.20;;
2956;SDS011;1488;51.548;7.222;2023-08-06T00:43:14;1.93;;;1.80;;
2956;SDS011;1488;51.548;7.222;2023-08-06T00:45:41;1.93;;;1.83;;
2956;SDS011;1488;51.548;7.222;2023-08-06T00:48:09;1.80;;;1.70;;
2956;SDS011;1488;51.548;7.222;2023-08-06T00:50:37;2.00;;;1.90;;
2956;SDS011;1488;51.548;7.222;2023-08-06T00:53:04;1.70;;;1.60;;
2956;SDS011;1488;51.548;7.222;2023-08-06T00:55:31;2.37;;;2.27;;
2956;SDS011;1488;51.548;7.222;2023-08-06T00:57:58;1.80;;;1.70;;
2956;SDS011;1488;51.548;7.222;2023-08-06T01:00:25;2.00;;;1.90;;
2956;SDS011;1488;51.548;7.222;2023-08-06T01:02:53;1.40;;;1.30;;
2956;SDS011;1488;51.548;7.222;2023-08-06T01:05:20;1.73;;;1.63;;
2956;SDS011;1488;51.548;7.222;2023-08-06T01:07:51;1.80;;;1.70;;
2956;SDS011;1488;51.548;7.222;2023-08-06T01:10:30;1.60;;;1.50;;
2956;SDS011;1488;51.548;7.222;2023-08-06T01:13:09;2.10;;;1.90;;
2956;SDS011;1488;51.548;7.222;2023-08-06T01:15:41;1.83;;;1.73;;
2956;SDS011;1488;51.548;7.222;2023-08-06T01:18:12;1.87;;;1.77;;
2956;SDS011;1488;51.548;7.222;2023-08-06T01:20:41;1.93;;;1.83;;
2956;SDS011;1488;51.548;7.222;2023-08-06T01:23:08;1.60;;;1.50;;
2956;SDS011;1488;51.548;7.222;2023-08-06T01:25:35;1.70;;;1.60;;
2956;SDS011;1488;51.548;7.222;2023-08-06T01:28:11;2.00;;;1.90;;
2956;SDS011;1488;51.548;7.222;2023-08-06T01:30:44;1.87;;;1.77;;
2956;SDS011;1488;51.548;7.222;2023-08-06T01:33:14;1.90;;;1.80;;
2956;SDS011;1488;51.548;7.222;2023-08-06T01:35:47;2.20;;;2.10;;
2956;SDS011;1488;51.548;7.222;2023-08-06T01:38:15;1.83;;;1.73;;
2956;SDS011;1488;51.548;7.222;2023-08-06T01:40:42;1.90;;;1.80;;
2956;SDS011;1488;51.548;7.222;2023-08-06T01:43:09;1.60;;;1.50;;
2956;SDS011;1488;51.548;7.222;2023-08-06T01:45:36;1.97;;;1.87;;
2956;SDS011;1488;51.548;7.222;2023-08-06T01:48:03;1.90;;;1.50;;
2956;SDS011;1488;51.548;7.222;2023-08-06T01:50:30;1.60;;;1.50;;
2956;SDS011;1488;51.548;7.222;2023-08-06T01:52:58;1.83;;;1.73;;
2956;SDS011;1488;51.548;7.222;2023-08-06T01:55:25;1.77;;;1.67;;
2956;SDS011;1488;51.548;7.222;2023-08-06T01:57:52;2.13;;;1.73;;
2956;SDS011;1488;51.548;7.222;2023-08-06T02:00:19;2.07;;;1.73;;
2956;SDS011;1488;51.548;7.222;2023-08-06T02:02:46;1.97;;;1.87;;
2956;SDS011;1488;51.548;7.222;2023-08-06T02:05:12;1.53;;;1.43;;
2956;SDS011;1488;51.548;7.222;2023-08-06T02:07:39;1.30;;;1.20;;
2956;SDS011;1488;51.548;7.222;2023-08-06T02:10:08;1.93;;;1.80;;
2956;SDS011;1488;51.548;7.222;2023-08-06T02:12:35;1.57;;;1.47;;
2956;SDS011;1488;51.548;7.222;2023-08-06T02:15:02;3.33;;;1.80;;
2956;SDS011;1488;51.548;7.222;2023-08-06T02:17:29;1.90;;;1.80;;
2956;SDS011;1488;51.548;7.222;2023-08-06T02:19:55;1.70;;;1.60;;
2956;SDS011;1488;51.548;7.222;2023-08-06T02:22:22;2.00;;;1.80;;
2956;SDS011;1488;51.548;7.222;2023-08-06T02:24:49;1.57;;;1.47;;
2956;SDS011;1488;51.548;7.222;2023-08-06T02:27:17;1.60;;;1.50;;
2956;SDS011;1488;51.548;7.222;2023-08-06T02:29:44;1.40;;;1.30;;
2956;SDS011;1488;51.548;7.222;2023-08-06T02:32:11;1.63;;;1.53;;
2956;SDS011;1488;51.548;7.222;2023-08-06T02:34:38;2.37;;;1.50;;
2956;SDS011;1488;51.548;7.222;2023-08-06T02:37:05;2.50;;;1.40;;
2956;SDS011;1488;51.548;7.222;2023-08-06T02:39:32;1.90;;;1.80;;
2956;SDS011;1488;51.548;7.222;2023-08-06T02:42:00;2.20;;;1.60;;
2956;SDS011;1488;51.548;7.222;2023-08-06T02:44:29;1.70;;;1.40;;
2956;SDS011;1488;51.548;7.222;2023-08-06T02:46:56;1.67;;;1.50;;
2956;SDS011;1488;51.548;7.222;2023-08-06T02:49:23;1.53;;;1.43;;
2956;SDS011;1488;51.548;7.222;2023-08-06T02:51:49;3.10;;;1.90;;
2956;SDS011;1488;51.548;7.222;2023-08-06T02:54:17;1.83;;;1.73;;
2956;SDS011;1488;51.548;7.222;2023-08-06T02:56:44;1.50;;;1.40;;
2956;SDS011;1488;51.548;7.222;2023-08-06T02:59:11;1.57;;;1.47;;
2956;SDS011;1488;51.548;7.222;2023-08-06T03:01:40;1.70;;;1.60;;
2956;SDS011;1488;51.548;7.222;2023-08-06T03:04:07;1.60;;;1.50;;
2956;SDS011;1488;51.548;7.222;2023-08-06T03:06:33;1.70;;;1.60;;
2956;SDS011;1488;51.548;7.222;2023-08-06T03:09:00;1.83;;;1.73;;
2956;SDS011;1488;51.548;7.222;2023-08-06T03:11:27;1.50;;;1.40;;
2956;SDS011;1488;51.548;7.222;2023-08-06T03:13:54;1.60;;;1.50;;
2956;SDS011;1488;51.548;7.222;2023-08-06T03:16:21;1.60;;;1.50;;
2956;SDS011;1488;51.548;7.222;2023-08-06T03:18:49;1.40;;;1.30;;
2956;SDS011;1488;51.548;7.222;2023-08-06T03:21:16;1.40;;;1.30;;
2956;SDS011;1488;51.548;7.222;2023-08-06T03:23:43;1.57;;;1.47;;
2956;SDS011;1488;51.548;7.222;2023-08-06T03:26:12;1.70;;;1.60;;
2956;SDS011;1488;51.548;7.222;2023-08-06T03:28:39;1.70;;;1.60;;
2956;SDS011;1488;51.548;7.222;2023-08-06T03:31:06;1.80;;;1.70;;
2956;SDS011;1488;51.548;7.222;2023-08-06T03:33:33;1.50;;;1.40;;
2956;SDS011;1488;51.548;7.222;2023-08-06T03:36:01;1.50;;;1.40;;
2956;SDS011;1488;51.548;7.222;2023-08-06T03:38:28;1.77;;;1.63;;
2956;SDS011;1488;51.548;7.222;2023-08-06T03:40:55;1.63;;;1.53;;
2956;SDS011;1488;51.548;7.222;2023-08-06T03:43:22;1.80;;;1.70;;
2956;SDS011;1488;51.548;7.222;2023-08-06T03:45:49;1.67;;;1.57;;
2956;SDS011;1488;51.548;7.222;2023-08-06T03:48:16;1.47;;;1.37;;
2956;SDS011;1488;51.548;7.222;2023-08-06T03:50:42;1.70;;;1.57;;
2956;SDS011;1488;51.548;7.222;2023-08-06T03:53:11;1.93;;;1.83;;
2956;SDS011;1488;51.548;7.222;2023-08-06T03:55:38;1.80;;;1.70;;
2956;SDS011;1488;51.548;7.222;2023-08-06T03:58:04;1.70;;;1.60;;
2956;SDS011;1488;51.548;7.222;2023-08-06T04:00:31;1.30;;;1.20;;
2956;SDS011;1488;51.548;7.222;2023-08-06T04:02:58;1.60;;;1.50;;
2956;SDS011;1488;51.548;7.222;2023-08-06T04:05:25;1.67;;;1.57;;
2956;SDS011;1488;51.548;7.222;2023-08-06T04:07:52;1.93;;;1.70;;
2956;SDS011;1488;51.548;7.222;2023-08-06T04:10:20;1.53;;;1.43;;
2956;SDS011;1488;51.548;7.222;2023-08-06T04:12:47;1.43;;;1.33;;
2956;SDS011;1488;51.548;7.222;2023-08-06T04:15:14;1.43;;;1.30;;
2956;SDS011;1488;51.548;7.222;2023-08-06T04:17:41;1.90;;;1.57;;
2956;SDS011;1488;51.548;7.222;2023-08-06T04:20:08;1.30;;;1.20;;
2956;SDS011;1488;51.548;7.222;2023-08-06T04:22:35;1.50;;;1.40;;
2956;SDS011;1488;51.548;7.222;2023-08-06T04:25:02;1.40;;;1.30;;
2956;SDS011;1488;51.548;7.222;2023-08-06T04:27:30;1.60;;;1.50;;
2956;SDS011;1488;51.548;7.222;2023-08-06T04:29:57;1.70;;;1.40;;
2956;SDS011;1488;51.548;7.222;2023-08-06T04:32:24;1.30;;;1.20;;
2956;SDS011;1488;51.548;7.222;2023-08-06T04:34:51;1.20;;;1.10;;
2956;SDS011;1488;51.548;7.222;2023-08-06T04:37:18;1.33;;;1.23;;
2956;SDS011;1488;51.548;7.222;2023-08-06T04:39:45;1.43;;;1.33;;
2956;SDS011;1488;51.548;7.222;2023-08-06T04:42:11;1.77;;;1.67;;
2956;SDS011;1488;51.548;7.222;2023-08-06T04:44:40;1.60;;;1.50;;
2956;SDS011;1488;51.548;7.222;2023-08-06T04:47:07;1.60;;;1.50;;
2956;SDS011;1488;51.548;7.222;2023-08-06T04:49:33;1.80;;;1.60;;
2956;SDS011;1488;51.548;7.222;2023-08-06T04:52:00;1.60;;;1.50;;
2956;SDS011;1488;51.548;7.222;2023-08-06T04:54:27;1.40;;;1.30;;
2956;SDS011;1488;51.548;7.222;2023-08-06T04:56:54;1.50;;;1.40;;
2956;SDS011;1488;51.548;7.222;2023-08-06T04:59:21;1.90;;;1.80;;
2956;SDS011;1488;51.548;7.222;2023-08-06T05:01:49;1.50;;;1.40;;
2956;SDS011;1488;51.548;7.222;2023-08-06T05:04:16;1.30;;;1.20;;
2956;SDS011;1488;51.548;7.222;2023-08-06T05:06:43;1.50;;;1.40;;
2956;SDS011;1488;51.548;7.222;2023-08-06T05:09:10;1.57;;;1.47;;
2956;SDS011;1488;51.548;7.222;2023-08-06T05:11:36;1.70;;;1.60;;
2956;SDS011;1488;51.548;7.222;2023-08-06T05:14:03;1.40;;;1.20;;
2956;SDS011;1488;51.548;7.222;2023-08-06T05:16:30;1.70;;;1.60;;
2956;SDS011;1488;51.548;7.222;2023-08-06T05:18:58;1.33;;;1.23;;
2956;SDS011;1488;51.548;7.222;2023-08-06T05:21:25;1.77;;;1.67;;
2956;SDS011;1488;51.548;7.222;2023-08-06T05:23:52;1.40;;;1.30;;
2956;SDS011;1488;51.548;7.222;2023-08-06T05:26:19;1.50;;;1.40;;
2956;SDS011;1488;51.548;7.222;2023-08-06T05:28:46;1.37;;;1.27;;
2956;SDS011;1488;51.548;7.222;2023-08-06T05:31:12;1.60;;;1.50;;
2956;SDS011;1488;51.548;7.222;2023-08-06T05:33:39;1.50;;;1.40;;
2956;SDS011;1488;51.548;7.222;2023-08-06T05:36:08;1.40;;;1.30;;
2956;SDS011;1488;51.548;7.222;2023-08-06T05:38:35;1.33;;;1.23;;
2956;SDS011;1488;51.548;7.222;2023-08-06T05:41:01;1.93;;;1.40;;
2956;SDS011;1488;51.548;7.222;2023-08-06T05:43:28;1.63;;;1.10;;
2956;SDS011;1488;51.548;7.222;2023-08-06T05:45:55;1.43;;;1.33;;
2956;SDS011;1488;51.548;7.222;2023-08-06T05:48:22;1.73;;;1.47;;
2956;SDS011;1488;51.548;7.222;2023-08-06T05:50:50;1.50;;;1.40;;
2956;SDS011;1488;51.548;7.222;2023-08-06T05:53:18;1.30;;;1.20;;
2956;SDS011;1488;51.548;7.222;2023-08-06T05:55:46;1.33;;;1.23;;
2956;SDS011;1488;51.548;7.222;2023-08-06T05:58:13;1.33;;;1.23;;
2956;SDS011;1488;51.548;7.222;2023-08-06T06:00:40;1.57;;;1.47;;
2956;SDS011;1488;51.548;7.222;2023-08-06T06:03:07;1.57;;;1.47;;
2956;SDS011;1488;51.548;7.222;2023-08-06T06:05:34;1.30;;;1.17;;
2956;SDS011;1488;51.548;7.222;2023-08-06T06:08:03;1.63;;;1.53;;
2956;SDS011;1488;51.548;7.222;2023-08-06T06:10:31;1.20;;;1.10;;
2956;SDS011;1488;51.548;7.222;2023-08-06T06:12:58;1.50;;;1.20;;
2956;SDS011;1488;51.548;7.222;2023-08-06T06:15:25;1.60;;;1.50;;
2956;SDS011;1488;51.548;7.222;2023-08-06T06:17:52;1.57;;;1.47;;
2956;SDS011;1488;51.548;7.222;2023-08-06T06:20:19;1.30;;;1.20;;
2956;SDS011;1488;51.548;7.222;2023-08-06T06:22:46;1.50;;;1.40;;
2956;SDS011;1488;51.548;7.222;2023-08-06T06:25:12;1.43;;;1.33;;
2956;SDS011;1488;51.548;7.222;2023-08-06T06:27:41;1.47;;;1.37;;
2956;SDS011;1488;51.548;7.222;2023-08-06T06:30:08;1.50;;;1.33;;
2956;SDS011;1488;51.548;7.222;2023-08-06T06:32:37;1.20;;;1.10;;
2956;SDS011;1488;51.548;7.222;2023-08-06T06:35:05;1.60;;;1.50;;
2956;SDS011;1488;51.548;7.222;2023-08-06T06:37:32;1.30;;;1.20;;
2956;SDS011;1488;51.548;7.222;2023-08-06T06:39:59;1.33;;;1.23;;
2956;SDS011;1488;51.548;7.222;2023-08-06T06:42:26;1.40;;;1.30;;
2956;SDS011;1488;51.548;7.222;2023-08-06T06:44:54;1.57;;;1.47;;
2956;SDS011;1488;51.548;7.222;2023-08-06T06:47:21;1.40;;;1.10;;
2956;SDS011;1488;51.548;7.222;2023-08-06T06:49:48;1.50;;;1.27;;
2956;SDS011;1488;51.548;7.222;2023-08-06T06:52:14;1.63;;;1.53;;
2956;SDS011;1488;51.548;7.222;2023-08-06T06:54:41;1.60;;;1.50;;
2956;SDS011;1488;51.548;7.222;2023-08-06T06:57:08;1.30;;;1.20;;
2956;SDS011;1488;51.548;7.222;2023-08-06T06:59:35;1.27;;;1.17;;
2956;SDS011;1488;51.548;7.222;2023-08-06T07:02:05;1.30;;;1.20;;
2956;SDS011;1488;51.548;7.222;2023-08-06T07:04:31;1.20;;;1.00;;
2956;SDS011;1488;51.548;7.222;2023-08-06T07:06:58;1.33;;;1.23;;
2956;SDS011;1488;51.548;7.222;2023-08-06T07:09:25;2.40;;;1.10;;
2956;SDS011;1488;51.548;7.222;2023-08-06T07:11:52;1.37;;;1.27;;
2956;SDS011;1488;51.548;7.222;2023-08-06T07:14:19;1.30;;;1.20;;
2956;SDS011;1488;51.548;7.222;2023-08-06T07:16:46;1.67;;;1.57;;
2956;SDS011;1488;51.548;7.222;2023-08-06T07:19:14;2.60;;;1.57;;
2956;SDS011;1488;51.548;7.222;2023-08-06T07:21:41;1.60;;;1.20;;
2956;SDS011;1488;51.548;7.222;2023-08-06T07:24:07;1.47;;;1.37;;
2956;SDS011;1488;51.548;7.222;2023-08-06T07:26:34;3.83;;;1.87;;
2956;SDS011;1488;51.548;7.222;2023-08-06T07:29:01;10.63;;;1.40;;
2956;SDS011;1488;51.548;7.222;2023-08-06T07:31:28;2.53;;;1.70;;
2956;SDS011;1488;51.548;7.222;2023-08-06T07:33:55;3.47;;;1.20;;
2956;SDS011;1488;51.548;7.222;2023-08-06T07:36:23;1.47;;;1.37;;
2956;SDS011;1488;51.548;7.222;2023-08-06T07:38:50;1.30;;;1.20;;
2956;SDS011;1488;51.548;7.222;2023-08-06T07:41:20;3.03;;;1.70;;
2956;SDS011;1488;51.548;7.222;2023-08-06T07:43:47;1.50;;;1.30;;
2956;SDS011;1488;51.548;7.222;2023-08-06T07:46:14;1.40;;;1.30;;
2956;SDS011;1488;51.548;7.222;2023-08-06T07:48:41;2.80;;;1.20;;
2956;SDS011;1488;51.548;7.222;2023-08-06T07:51:08;3.33;;;1.60;;
2956;SDS011;1488;51.548;7.222;2023-08-06T07:53:36;1.27;;;1.17;;
2956;SDS011;1488;51.548;7.222;2023-08-06T07:56:04;1.50;;;1.30;;
2956;SDS011;1488;51.548;7.222;2023-08-06T07:58:31;1.33;;;1.17;;
2956;SDS011;1488;51.548;7.222;2023-08-06T08:00:57;1.47;;;1.37;;
2956;SDS011;1488;51.548;7.222;2023-08-06T08:03:24;3.83;;;1.47;;
2956;SDS011;1488;51.548;7.222;2023-08-06T08:05:53;1.27;;;1.17;;
2956;SDS011;1488;51.548;7.222;2023-08-06T08:08:22;1.80;;;1.50;;
2956;SDS011;1488;51.548;7.222;2023-08-06T08:10:50;1.37;;;1.27;;
2956;SDS011;1488;51.548;7.222;2023-08-06T08:13:17;2.53;;;1.43;;
2956;SDS011;1488;51.548;7.222;2023-08-06T08:15:44;1.80;;;1.70;;
2956;SDS011;1488;51.548;7.222;2023-08-06T08:18:11;1.60;;;1.50;;
2956;SDS011;1488;51.548;7.222;2023-08-06T08:20:37;1.40;;;1.30;;
2956;SDS011;1488;51.548;7.222;2023-08-06T08:23:04;1.43;;;1.23;;
2956;SDS011;1488;51.548;7.222;2023-08-06T08:25:31;6.10;;;1.33;;
2956;SDS011;1488;51.548;7.222;2023-08-06T08:28:01;1.40;;;1.20;;
2956;SDS011;1488;51.548;7.222;2023-08-06T08:30:29;3.53;;;1.40;;
2956;SDS011;1488;51.548;7.222;2023-08-06T08:33:03;3.00;;;1.33;;
2956;SDS011;1488;51.548;7.222;2023-08-06T08:35:30;2.27;;;1.30;;
2956;SDS011;1488;51.548;7.222;2023-08-06T08:38:00;1.27;;;1.17;;
2956;SDS011;1488;51.548;7.222;2023-08-06T08:40:46;2.73;;;1.60;;
2956;SDS011;1488;51.548;7.222;2023-08-06T08:46:10;1.70;;;1.60;;
2956;SDS011;1488;51.548;7.222;2023-08-06T08:48:39;1.50;;;1.40;;
2956;SDS011;1488;51.548;7.222;2023-08-06T08:51:07;2.43;;;1.37;;
2956;SDS011;1488;51.548;7.222;2023-08-06T08:53:48;1.70;;;1.57;;
2956;SDS011;1488;51.548;7.222;2023-08-06T08:56:20;1.57;;;1.47;;
2956;SDS011;1488;51.548;7.222;2023-08-06T08:58:50;1.43;;;1.33;;
2956;SDS011;1488;51.548;7.222;2023-08-06T09:01:18;2.10;;;1.60;;
2956;SDS011;1488;51.548;7.222;2023-08-06T09:03:46;2.40;;;1.60;;
2956;SDS011;1488;51.548;7.222;2023-08-06T09:06:14;2.70;;;1.43;;
2956;SDS011;1488;51.548;7.222;2023-08-06T09:11:27;1.30;;;1.20;;
2956;SDS011;1488;51.548;7.222;2023-08-06T09:14:06;1.60;;;1.50;;
2956;SDS011;1488;51.548;7.222;2023-08-06T09:16:35;1.80;;;1.70;;
2956;SDS011;1488;51.548;7.222;2023-08-06T09:19:07;1.97;;;1.40;;
2956;SDS011;1488;51.548;7.222;2023-08-06T09:21:37;1.30;;;1.20;;
2956;SDS011;1488;51.548;7.222;2023-08-06T09:24:08;1.20;;;1.00;;
2956;SDS011;1488;51.548;7.222;2023-08-06T09:26:36;1.60;;;1.00;;
2956;SDS011;1488;51.548;7.222;2023-08-06T09:29:10;1.70;;;1.33;;
2956;SDS011;1488;51.548;7.222;2023-08-06T09:31:40;1.80;;;1.60;;
2956;SDS011;1488;51.548;7.222;2023-08-06T09:34:10;2.10;;;1.40;;
2956;SDS011;1488;51.548;7.222;2023-08-06T09:36:41;2.00;;;1.43;;
2956;SDS011;1488;51.548;7.222;2023-08-06T09:39:14;1.80;;;1.50;;
2956;SDS011;1488;51.548;7.222;2023-08-06T09:41:44;1.40;;;1.30;;
2956;SDS011;1488;51.548;7.222;2023-08-06T09:44:17;1.43;;;1.30;;
2956;SDS011;1488;51.548;7.222;2023-08-06T09:46:48;1.50;;;1.40;;
2956;SDS011;1488;51.548;7.222;2023-08-06T09:49:25;2.03;;;1.10;;
2956;SDS011;1488;51.548;7.222;2023-08-06T09:51:58;1.37;;;1.27;;
2956;SDS011;1488;51.548;7.222;2023-08-06T09:54:26;1.20;;;1.07;;
2956;SDS011;1488;51.548;7.222;2023-08-06T09:56:55;1.40;;;1.30;;
2956;SDS011;1488;51.548;7.222;2023-08-06T09:59:32;1.30;;;1.20;;
2956;SDS011;1488;51.548;7.222;2023-08-06T10:02:00;1.50;;;1.40;;
2956;SDS011;1488;51.548;7.222;2023-08-06T10:04:28;1.87;;;1.30;;
2956;SDS011;1488;51.548;7.222;2023-08-06T10:06:56;1.27;;;1.10;;
2956;SDS011;1488;51.548;7.222;2023-08-06T10:09:31;1.47;;;1.20;;
2956;SDS011;1488;51.548;7.222;2023-08-06T10:11:57;1.30;;;1.20;;
2956;SDS011;1488;51.548;7.222;2023-08-06T10:14:26;1.40;;;1.30;;
2956;SDS011;1488;51.548;7.222;2023-08-06T10:17:02;1.70;;;1.50;;
2956;SDS011;1488;51.548;7.222;2023-08-06T10:19:31;2.00;;;1.80;;
2956;SDS011;1488;51.548;7.222;2023-08-06T10:22:07;1.50;;;1.40;;
2956;SDS011;1488;51.548;7.222;2023-08-06T10:24:48;1.40;;;1.30;;
2956;SDS011;1488;51.548;7.222;2023-08-06T10:27:28;1.60;;;1.10;;
2956;SDS011;1488;51.548;7.222;2023-08-06T10:30:20;1.40;;;1.27;;
2956;SDS011;1488;51.548;7.222;2023-08-06T10:32:50;1.50;;;1.10;;
2956;SDS011;1488;51.548;7.222;2023-08-06T10:35:31;3.90;;;1.40;;
2956;SDS011;1488;51.548;7.222;2023-08-06T10:38:04;1.50;;;1.30;;
2956;SDS011;1488;51.548;7.222;2023-08-06T10:40:33;1.47;;;1.20;;
2956;SDS011;1488;51.548;7.222;2023-08-06T10:43:01;1.50;;;1.40;;
2956;SDS011;1488;51.548;7.222;2023-08-06T10:45:32;1.73;;;1.63;;
2956;SDS011;1488;51.548;7.222;2023-08-06T10:48:02;1.60;;;1.50;;
2956;SDS011;1488;51.548;7.222;2023-08-06T10:50:30;1.33;;;1.20;;
2956;SDS011;1488;51.548;7.222;2023-08-06T10:53:03;2.43;;;1.50;;
2956;SDS011;1488;51.548;7.222;2023-08-06T10:55:32;2.00;;;1.50;;
2956;SDS011;1488;51.548;7.222;2023-08-06T10:58:03;1.10;;;1.00;;
2956;SDS011;1488;51.548;7.222;2023-08-06T11:00:31;1.13;;;1.03;;
2956;SDS011;1488;51.548;7.222;2023-08-06T11:02:59;1.77;;;1.30;;
2956;SDS011;1488;51.548;7.222;2023-08-06T11:05:28;1.30;;;1.20;;
2956;SDS011;1488;51.548;7.222;2023-08-06T11:07:56;1.40;;;1.30;;
2956;SDS011;1488;51.548;7.222;2023-08-06T11:10:24;1.40;;;1.30;;
2956;SDS011;1488;51.548;7.222;2023-08-06T11:12:52;1.77;;;1.33;;
2956;SDS011;1488;51.548;7.222;2023-08-06T11:15:19;3.17;;;1.23;;
2956;SDS011;1488;51.548;7.222;2023-08-06T11:17:50;1.60;;;1.50;;
2956;SDS011;1488;51.548;7.222;2023-08-06T11:20:17;2.70;;;1.20;;
2956;SDS011;1488;51.548;7.222;2023-08-06T11:22:50;1.30;;;1.20;;
2956;SDS011;1488;51.548;7.222;2023-08-06T11:25:19;1.47;;;1.30;;
2956;SDS011;1488;51.548;7.222;2023-08-06T11:27:50;1.27;;;1.17;;
2956;SDS011;1488;51.548;7.222;2023-08-06T11:30:19;1.50;;;1.33;;
2956;SDS011;1488;51.548;7.222;2023-08-06T11:32:50;3.23;;;1.40;;
2956;SDS011;1488;51.548;7.222;2023-08-06T11:35:19;1.20;;;1.10;;
2956;SDS011;1488;51.548;7.222;2023-08-06T11:37:46;1.20;;;1.10;;
2956;SDS011;1488;51.548;7.222;2023-08-06T11:43:00;1.30;;;1.20;;
2956;SDS011;1488;51.548;7.222;2023-08-06T11:45:28;2.60;;;1.40;;
2956;SDS011;1488;51.548;7.222;2023-08-06T11:47:56;1.50;;;1.33;;
2956;SDS011;1488;51.548;7.222;2023-08-06T11:50:25;1.50;;;1.40;;
2956;SDS011;1488;51.548;7.222;2023-08-06T11:52:58;1.30;;;1.20;;
2956;SDS011;1488;51.548;7.222;2023-08-06T11:55:28;1.60;;;1.50;;
2956;SDS011;1488;51.548;7.222;2023-08-06T11:57:57;1.40;;;1.30;;
2956;SDS011;1488;51.548;7.222;2023-08-06T12:00:28;2.73;;;1.30;;
2956;SDS011;1488;51.548;7.222;2023-08-06T12:03:04;1.33;;;1.20;;
2956;SDS011;1488;51.548;7.222;2023-08-06T12:05:34;1.50;;;1.20;;
2956;SDS011;1488;51.548;7.222;2023-08-06T12:08:06;1.43;;;1.33;;
2956;SDS011;1488;51.548;7.222;2023-08-06T12:10:35;1.40;;;1.20;;
2956;SDS011;1488;51.548;7.222;2023-08-06T12:13:08;1.30;;;1.20;;
2956;SDS011;1488;51.548;7.222;2023-08-06T12:15:38;1.40;;;1.30;;
2956;SDS011;1488;51.548;7.222;2023-08-06T12:18:05;1.37;;;1.27;;
2956;SDS011;1488;51.548;7.222;2023-08-06T12:20:35;1.60;;;1.50;;
2956;SDS011;1488;51.548;7.222;2023-08-06T12:23:04;1.60;;;1.50;;
2956;SDS011;1488;51.548;7.222;2023-08-06T12:25:32;1.30;;;1.20;;
2956;SDS011;1488;51.548;7.222;2023-08-06T12:28:00;1.40;;;1.30;;
2956;SDS011;1488;51.548;7.222;2023-08-06T12:30:33;1.40;;;1.20;;
2956;SDS011;1488;51.548;7.222;2023-08-06T12:33:09;1.37;;;1.27;;
2956;SDS011;1488;51.548;7.222;2023-08-06T12:35:36;1.20;;;1.10;;
2956;SDS011;1488;51.548;7.222;2023-08-06T12:38:07;1.70;;;1.50;;
2956;SDS011;1488;51.548;7.222;2023-08-06T12:40:34;1.87;;;1.60;;
2956;SDS011;1488;51.548;7.222;2023-08-06T12:43:04;1.30;;;1.20;;
2956;SDS011;1488;51.548;7.222;2023-08-06T12:45:31;1.40;;;1.30;;
2956;SDS011;1488;51.548;7.222;2023-08-06T12:48:02;1.23;;;1.13;;
2956;SDS011;1488;51.548;7.222;2023-08-06T12:50:30;1.40;;;1.30;;
2956;SDS011;1488;51.548;7.222;2023-08-06T12:52:59;1.60;;;1.40;;
2956;SDS011;1488;51.548;7.222;2023-08-06T12:55:26;1.47;;;1.37;;
2956;SDS011;1488;51.548;7.222;2023-08-06T12:57:53;1.33;;;1.23;;
2956;SDS011;1488;51.548;7.222;2023-08-06T13:00:21;1.20;;;1.10;;
2956;SDS011;1488;51.548;7.222;2023-08-06T13:02:50;1.30;;;1.20;;
2956;SDS011;1488;51.548;7.222;2023-08-06T13:05:19;1.83;;;1.50;;
2956;SDS011;1488;51.548;7.222;2023-08-06T13:07:47;2.33;;;0.90;;
2956;SDS011;1488;51.548;7.222;2023-08-06T13:10:18;1.50;;;1.30;;
2956;SDS011;1488;51.548;7.222;2023-08-06T13:12:46;1.30;;;1.20;;
2956;SDS011;1488;51.548;7.222;2023-08-06T13:15:27;1.20;;;1.10;;
2956;SDS011;1488;51.548;7.222;2023-08-06T13:17:57;1.37;;;1.27;;
2956;SDS011;1488;51.548;7.222;2023-08-06T13:20:26;1.30;;;1.10;;
2956;SDS011;1488;51.548;7.222;2023-08-06T13:22:59;1.27;;;1.17;;
2956;SDS011;1488;51.548;7.222;2023-08-06T13:25:26;1.27;;;1.17;;
2956;SDS011;1488;51.548;7.222;2023-08-06T13:27:53;1.30;;;1.10;;
2956;SDS011;1488;51.548;7.222;2023-08-06T13:30:21;1.30;;;1.20;;
2956;SDS011;1488;51.548;7.222;2023-08-06T13:32:48;1.43;;;1.23;;
2956;SDS011;1488;51.548;7.222;2023-08-06T13:35:15;1.10;;;1.00;;
2956;SDS011;1488;51.548;7.222;2023-08-06T13:37:43;1.30;;;1.20;;
2956;SDS011;1488;51.548;7.222;2023-08-06T13:40:10;1.30;;;1.20;;
2956;SDS011;1488;51.548;7.222;2023-08-06T13:42:37;1.30;;;1.20;;
2956;SDS011;1488;51.548;7.222;2023-08-06T13:45:06;1.33;;;1.23;;
2956;SDS011;1488;51.548;7.222;2023-08-06T13:47:42;1.20;;;1.10;;
2956;SDS011;1488;51.548;7.222;2023-08-06T13:50:17;1.10;;;1.00;;
2956;SDS011;1488;51.548;7.222;2023-08-06T13:52:48;1.50;;;1.20;;
2956;SDS011;1488;51.548;7.222;2023-08-06T13:55:15;1.37;;;1.27;;
2956;SDS011;1488;51.548;7.222;2023-08-06T13:57:43;1.23;;;1.13;;
2956;SDS011;1488;51.548;7.222;2023-08-06T14:00:12;1.20;;;1.10;;
2956;SDS011;1488;51.548;7.222;2023-08-06T14:02:39;1.30;;;1.20;;
2956;SDS011;1488;51.548;7.222;2023-08-06T14:05:08;1.33;;;1.23;;
2956;SDS011;1488;51.548;7.222;2023-08-06T14:07:38;1.30;;;1.20;;
2956;SDS011;1488;51.548;7.222;2023-08-06T14:10:08;1.20;;;1.10;;
2956;SDS011;1488;51.548;7.222;2023-08-06T14:12:38;1.40;;;1.13;;
2956;SDS011;1488;51.548;7.222;2023-08-06T14:15:08;1.47;;;1.13;;
2956;SDS011;1488;51.548;7.222;2023-08-06T14:17:36;1.30;;;1.00;;
2956;SDS011;1488;51.548;7.222;2023-08-06T14:20:06;1.80;;;1.00;;
2956;SDS011;1488;51.548;7.222;2023-08-06T14:22:37;2.60;;;1.20;;
2956;SDS011;1488;51.548;7.222;2023-08-06T14:25:04;1.20;;;1.10;;
2956;SDS011;1488;51.548;7.222;2023-08-06T14:27:36;1.10;;;0.90;;
2956;SDS011;1488;51.548;7.222;2023-08-06T14:30:05;1.20;;;0.97;;
2956;SDS011;1488;51.548;7.222;2023-08-06T14:32:35;1.10;;;1.00;;
2956;SDS011;1488;51.548;7.222;2023-08-06T14:35:02;1.30;;;1.00;;
2956;SDS011;1488;51.548;7.222;2023-08-06T14:37:30;1.10;;;0.90;;
2956;SDS011;1488;51.548;7.222;2023-08-06T14:40:01;1.10;;;0.90;;
2956;SDS011;1488;51.548;7.222;2023-08-06T14:42:30;1.10;;;1.00;;
2956;SDS011;1488;51.548;7.222;2023-08-06T14:44:57;1.27;;;1.17;;
2956;SDS011;1488;51.548;7.222;2023-08-06T14:47:24;1.30;;;1.13;;
2956;SDS011;1488;51.548;7.222;2023-08-06T14:49:51;1.10;;;1.00;;
2956;SDS011;1488;51.548;7.222;2023-08-06T14:52:18;1.10;;;0.90;;
2956;SDS011;1488;51.548;7.222;2023-08-06T14:54:46;1.10;;;0.93;;
2956;SDS011;1488;51.548;7.222;2023-08-06T14:57:17;1.10;;;1.00;;
2956;SDS011;1488;51.548;7.222;2023-08-06T14:59:45;1.00;;;0.87;;
2956;SDS011;1488;51.548;7.222;2023-08-06T15:02:15;1.17;;;1.00;;
2956;SDS011;1488;51.548;7.222;2023-08-06T15:04:42;1.10;;;1.00;;
2956;SDS011;1488;51.548;7.222;2023-08-06T15:07:09;1.10;;;0.83;;
2956;SDS011;1488;51.548;7.222;2023-08-06T15:09:37;1.07;;;0.93;;
2956;SDS011;1488;51.548;7.222;2023-08-06T15:12:06;1.17;;;0.97;;
2956;SDS011;1488;51.548;7.222;2023-08-06T15:14:34;1.30;;;0.90;;
2956;SDS011;1488;51.548;7.222;2023-08-06T15:17:02;1.30;;;1.20;;
2956;SDS011;1488;51.548;7.222;2023-08-06T15:19:32;1.10;;;1.00;;
2956;SDS011;1488;51.548;7.222;2023-08-06T15:21:59;1.10;;;0.90;;
2956;SDS011;1488;51.548;7.222;2023-08-06T15:24:26;1.60;;;1.17;;
2956;SDS011;1488;51.548;7.222;2023-08-06T15:26:53;1.00;;;0.83;;
2956;SDS011;1488;51.548;7.222;2023-08-06T15:29:22;1.10;;;1.00;;
2956;SDS011;1488;51.548;7.222;2023-08-06T15:31:49;1.20;;;1.10;;